createdAt,value
2019-03-20T00:00:18.217Z,35.73
2019-03-20T00:02:46.860Z,38.13
2019-03-20T00:05:15.484Z,32.53
2019-03-20T00:07:44.126Z,32.37
2019-03-20T00:10:12.764Z,31.50
2019-03-20T00:12:41.437Z,34.27
2019-03-20T00:15:15.161Z,45.70
2019-03-20T00:17:43.724Z,49.77
2019-03-20T00:20:14.011Z,39.60
2019-03-20T00:22:43.368Z,38.90
2019-03-20T00:25:15.486Z,41.33
2019-03-20T00:27:44.057Z,35.00
2019-03-20T00:30:19.459Z,35.13
2019-03-20T00:32:48.094Z,39.63
2019-03-20T00:35:16.724Z,45.07
2019-03-20T00:37:45.359Z,38.30
2019-03-20T00:40:15.969Z,40.57
2019-03-20T00:42:44.712Z,43.07
2019-03-20T00:45:22.041Z,46.63
2019-03-20T00:47:50.680Z,68.20
2019-03-20T00:50:20.012Z,58.63
2019-03-20T00:52:48.642Z,53.73
2019-03-20T00:55:18.228Z,48.07
2019-03-20T00:57:47.246Z,42.90
2019-03-20T01:00:18.499Z,51.53
2019-03-20T01:02:47.047Z,42.33
2019-03-20T01:05:16.395Z,38.30
2019-03-20T01:07:45.532Z,38.67
2019-03-20T01:10:21.583Z,34.03
2019-03-20T01:12:50.660Z,31.77
2019-03-20T01:15:19.289Z,29.33
2019-03-20T01:17:47.956Z,28.70
2019-03-20T01:20:26.424Z,25.43
2019-03-20T01:22:55.053Z,23.80
2019-03-20T01:25:23.667Z,22.60
2019-03-20T01:27:52.290Z,22.47
2019-03-20T01:30:40.180Z,19.70
2019-03-20T01:33:11.062Z,20.97
2019-03-20T01:35:39.791Z,19.47
2019-03-20T01:38:09.124Z,17.83
2019-03-20T01:40:40.099Z,19.97
2019-03-20T01:43:08.033Z,19.90
2019-03-20T01:45:36.604Z,20.00
2019-03-20T01:48:05.341Z,16.47
2019-03-20T01:50:34.041Z,18.17
2019-03-20T01:53:02.679Z,17.60
2019-03-20T01:55:31.310Z,17.40
2019-03-20T01:57:59.986Z,20.00
2019-03-20T02:00:28.614Z,16.67
2019-03-20T02:02:57.302Z,13.97
2019-03-20T02:05:35.123Z,15.67
2019-03-20T02:07:56.199Z,21.80
2019-03-20T02:10:24.829Z,24.53
2019-03-20T02:12:53.325Z,27.13
2019-03-20T02:15:21.927Z,26.73
2019-03-20T02:17:50.553Z,25.23
2019-03-20T02:20:20.573Z,21.03
2019-03-20T02:22:49.202Z,23.77
2019-03-20T02:25:17.870Z,18.83
2019-03-20T02:27:46.490Z,33.40
2019-03-20T02:30:17.895Z,39.43
2019-03-20T02:32:46.517Z,20.23
2019-03-20T02:35:15.577Z,20.87
2019-03-20T02:37:44.211Z,20.20
2019-03-20T02:40:15.917Z,18.77
2019-03-20T02:42:44.548Z,23.77
2019-03-20T02:45:16.727Z,21.17
2019-03-20T02:47:45.338Z,21.77
2019-03-20T02:50:15.338Z,29.27
2019-03-20T02:52:43.991Z,16.13
2019-03-20T02:55:13.047Z,13.03
2019-03-20T02:57:41.689Z,15.67
2019-03-20T03:00:23.074Z,15.33
2019-03-20T03:02:51.709Z,18.10
2019-03-20T03:05:20.495Z,17.50
2019-03-20T03:07:49.127Z,19.23
2019-03-20T03:10:18.470Z,15.47
2019-03-20T03:12:47.200Z,15.03
2019-03-20T03:15:16.375Z,32.60
2019-03-20T03:17:45.144Z,31.17
2019-03-20T03:20:14.895Z,27.03
2019-03-20T03:22:43.629Z,30.97
2019-03-20T03:25:13.700Z,34.73
2019-03-20T03:27:42.341Z,30.90
2019-03-20T03:30:15.685Z,32.87
2019-03-20T03:32:44.379Z,27.90
2019-03-20T03:35:18.300Z,28.27
2019-03-20T03:37:43.802Z,28.90
2019-03-20T03:40:14.195Z,27.00
2019-03-20T03:42:42.843Z,31.83
2019-03-20T03:45:13.455Z,28.73
2019-03-20T03:47:42.099Z,26.03
2019-03-20T03:50:11.308Z,29.60
2019-03-20T03:52:40.040Z,26.67
2019-03-20T03:55:13.177Z,33.27
2019-03-20T03:57:41.875Z,28.17
2019-03-20T04:00:18.218Z,44.87
2019-03-20T04:02:46.863Z,41.93
2019-03-20T04:05:15.662Z,46.07
2019-03-20T04:07:44.383Z,46.77
2019-03-20T04:10:16.741Z,43.10
2019-03-20T04:12:45.411Z,53.03
2019-03-20T04:15:15.054Z,52.63
2019-03-20T04:17:43.748Z,49.23
2019-03-20T04:20:17.939Z,45.33
2019-03-20T04:22:46.522Z,49.17
2019-03-20T04:25:15.164Z,49.57
2019-03-20T04:27:43.788Z,47.50
2019-03-20T04:30:17.374Z,36.90
2019-03-20T04:32:46.045Z,37.03
2019-03-20T04:35:14.775Z,37.13
2019-03-20T04:37:43.341Z,40.70
2019-03-20T04:40:14.132Z,35.13
2019-03-20T04:42:42.783Z,26.87
2019-03-20T04:45:13.308Z,17.43
2019-03-20T04:47:41.933Z,17.30
2019-03-20T04:50:15.369Z,10.93
2019-03-20T04:52:44.038Z,13.80
2019-03-20T04:55:12.674Z,19.13
2019-03-20T04:57:41.342Z,13.17
2019-03-20T05:00:15.694Z,12.60
2019-03-20T05:02:45.246Z,11.03
2019-03-20T05:05:15.182Z,11.37
2019-03-20T05:07:43.865Z,15.17
2019-03-20T05:10:14.200Z,14.67
2019-03-20T05:12:42.825Z,16.20
2019-03-20T05:15:12.694Z,18.00
2019-03-20T05:17:41.522Z,11.50
2019-03-20T05:20:15.548Z,19.27
2019-03-20T05:22:44.119Z,26.73
2019-03-20T05:25:12.781Z,25.37
2019-03-20T05:27:41.460Z,30.67
2019-03-20T05:30:14.267Z,31.57
2019-03-20T05:32:42.897Z,24.13
2019-03-20T05:35:11.523Z,24.53
2019-03-20T05:37:40.213Z,26.47
2019-03-20T05:40:15.900Z,32.43
2019-03-20T05:42:44.587Z,29.67
2019-03-20T05:45:16.142Z,27.37
2019-03-20T05:47:44.751Z,25.13
2019-03-20T05:50:17.215Z,27.63
2019-03-20T05:52:45.888Z,21.80
2019-03-20T05:55:14.932Z,21.77
2019-03-20T05:57:43.635Z,21.97
2019-03-20T06:00:21.104Z,17.53
2019-03-20T06:02:49.968Z,21.07
2019-03-20T06:05:18.818Z,17.67
2019-03-20T06:07:47.536Z,23.13
2019-03-20T06:10:17.514Z,20.90
2019-03-20T06:12:46.425Z,22.87
2019-03-20T06:15:15.454Z,21.67
2019-03-20T06:17:46.697Z,20.87
2019-03-20T06:20:15.260Z,18.77
2019-03-20T06:22:44.027Z,24.13
2019-03-20T06:25:14.140Z,20.63
2019-03-20T06:27:45.195Z,23.20
2019-03-20T06:30:15.990Z,19.93
2019-03-20T06:32:44.720Z,18.93
2019-03-20T06:35:14.973Z,17.57
2019-03-20T06:37:43.717Z,21.77
2019-03-20T06:40:16.253Z,20.63
2019-03-20T06:42:45.032Z,18.67
2019-03-20T06:45:18.392Z,20.83
2019-03-20T06:47:47.079Z,21.30
2019-03-20T06:50:21.803Z,20.53
2019-03-20T06:52:51.466Z,20.32
2019-03-20T06:55:20.141Z,18.17
2019-03-20T06:57:49.050Z,17.70
2019-03-20T07:00:37.940Z,21.60
2019-03-20T07:03:15.189Z,19.50
2019-03-20T07:06:04.301Z,17.73
2019-03-20T07:08:35.886Z,16.13
2019-03-20T07:11:06.681Z,17.53
2019-03-20T07:13:35.364Z,17.43
2019-03-20T07:16:04.592Z,20.93
2019-03-20T07:18:33.444Z,22.10
2019-03-20T07:21:02.334Z,21.47
2019-03-20T07:23:31.130Z,20.90
2019-03-20T07:25:59.945Z,19.33
2019-03-20T07:28:28.820Z,18.60
2019-03-20T07:30:57.596Z,21.00
2019-03-20T07:33:26.195Z,18.57
2019-03-20T07:35:54.995Z,18.50
2019-03-20T07:38:23.699Z,18.40
2019-03-20T07:40:55.776Z,17.60
2019-03-20T07:43:26.862Z,18.33
2019-03-20T07:45:54.960Z,15.00
2019-03-20T07:48:24.951Z,15.00
2019-03-20T07:50:55.535Z,16.07
2019-03-20T07:53:24.763Z,14.67
2019-03-20T07:55:54.976Z,15.63
2019-03-20T07:58:24.564Z,15.20
2019-03-20T08:00:55.577Z,18.80
2019-03-20T08:03:24.749Z,17.90
2019-03-20T08:05:53.332Z,21.07
2019-03-20T08:08:21.918Z,16.50
2019-03-20T08:10:50.887Z,17.83
2019-03-20T08:13:19.466Z,18.63
2019-03-20T08:15:47.961Z,14.67
2019-03-20T08:18:16.828Z,15.97
2019-03-20T08:20:45.546Z,17.27
2019-03-20T08:23:14.191Z,16.73
2019-03-20T08:25:42.950Z,14.30
2019-03-20T08:28:14.964Z,14.07
2019-03-20T08:30:43.654Z,19.07
2019-03-20T08:33:15.044Z,17.63
2019-03-20T08:35:44.034Z,17.07
2019-03-20T08:38:18.531Z,14.43
2019-03-20T08:40:45.416Z,13.60
2019-03-20T08:43:19.626Z,14.57
2019-03-20T08:45:52.428Z,17.33
2019-03-20T08:48:21.214Z,22.30
2019-03-20T08:50:51.547Z,15.65
2019-03-20T08:53:27.733Z,19.73
2019-03-20T08:56:00.297Z,13.30
2019-03-20T08:58:31.493Z,17.45
2019-03-20T09:01:04.311Z,12.47
2019-03-20T09:03:35.858Z,11.55
2019-03-20T09:06:04.910Z,13.50
2019-03-20T09:08:38.766Z,14.55
2019-03-20T09:11:07.715Z,13.03
2019-03-20T09:13:41.798Z,14.65
2019-03-20T09:16:13.379Z,9.35
2019-03-20T09:18:43.805Z,14.38
2019-03-20T09:21:15.788Z,10.95
2019-03-20T09:23:44.609Z,8.03
2019-03-20T09:26:13.516Z,11.55
2019-03-20T09:28:42.602Z,20.95
2019-03-20T09:31:12.933Z,13.05
2019-03-20T09:33:44.444Z,8.25
2019-03-20T09:36:13.545Z,13.72
2019-03-20T09:38:43.727Z,8.50
2019-03-20T09:41:12.794Z,9.58
2019-03-20T09:43:41.817Z,8.28
2019-03-20T09:46:10.648Z,14.70
2019-03-20T09:48:39.530Z,10.08
2019-03-20T09:51:08.319Z,11.70
2019-03-20T09:53:36.888Z,10.38
2019-03-20T09:56:05.575Z,9.18
2019-03-20T09:58:34.242Z,8.48
2019-03-20T10:01:05.949Z,8.55
2019-03-20T10:03:34.483Z,11.10
2019-03-20T10:06:03.062Z,11.28
2019-03-20T10:08:31.536Z,11.60
2019-03-20T10:11:00.206Z,8.30
2019-03-20T10:13:28.762Z,11.15
2019-03-20T10:15:57.291Z,11.93
2019-03-20T10:18:25.857Z,13.98
2019-03-20T10:20:57.107Z,10.93
2019-03-20T10:23:25.680Z,10.10
2019-03-20T10:25:54.173Z,9.88
2019-03-20T10:28:22.848Z,10.50
2019-03-20T10:30:51.561Z,8.03
2019-03-20T10:33:20.222Z,8.20
2019-03-20T10:35:50.481Z,7.58
2019-03-20T10:38:19.205Z,8.90
2019-03-20T10:40:50.863Z,12.07
2019-03-20T10:43:19.472Z,9.90
2019-03-20T10:45:52.457Z,13.22
2019-03-20T10:48:21.712Z,9.18
2019-03-20T10:50:50.646Z,12.23
2019-03-20T10:53:19.392Z,8.13
2019-03-20T10:55:48.159Z,10.95
2019-03-20T10:58:16.889Z,9.45
2019-03-20T11:00:45.559Z,7.78
2019-03-20T11:03:14.271Z,13.95
2019-03-20T11:05:42.942Z,12.53
2019-03-20T11:08:13.035Z,8.58
2019-03-20T11:10:42.691Z,10.05
2019-03-20T11:13:12.518Z,8.68
2019-03-20T11:15:42.831Z,9.08
2019-03-20T11:18:11.543Z,10.55
2019-03-20T11:20:40.580Z,8.50
2019-03-20T11:23:09.312Z,9.63
2019-03-20T11:25:38.386Z,13.62
2019-03-20T11:28:07.281Z,8.58
2019-03-20T11:30:36.291Z,13.03
2019-03-20T11:33:05.204Z,13.25
2019-03-20T11:35:36.747Z,11.10
2019-03-20T11:38:05.599Z,11.15
2019-03-20T11:40:36.754Z,14.65
2019-03-20T11:43:06.022Z,8.98
2019-03-20T11:45:34.698Z,19.60
2019-03-20T11:48:03.423Z,10.55
2019-03-20T11:50:42.075Z,9.55
2019-03-20T11:53:11.064Z,13.10
2019-03-20T11:55:39.735Z,12.95
2019-03-20T11:58:08.626Z,13.00
2019-03-20T12:00:37.500Z,7.62
2019-03-20T12:03:06.562Z,15.98
2019-03-20T12:05:35.223Z,10.98
2019-03-20T12:08:03.978Z,11.85
2019-03-20T12:10:34.631Z,10.58
2019-03-20T12:13:03.302Z,11.83
2019-03-20T12:15:32.076Z,11.65
2019-03-20T12:18:00.845Z,10.38
2019-03-20T12:20:29.486Z,14.73
2019-03-20T12:22:58.271Z,11.93
2019-03-20T12:25:34.514Z,13.75
2019-03-20T12:28:03.307Z,11.78
2019-03-20T12:30:33.918Z,23.38
2019-03-20T12:33:02.673Z,15.90
2019-03-20T12:35:36.993Z,11.20
2019-03-20T12:38:14.231Z,15.23
2019-03-20T12:40:36.128Z,12.50
2019-03-20T12:43:05.252Z,11.45
2019-03-20T12:45:39.139Z,14.20
2019-03-20T12:48:08.806Z,12.95
2019-03-20T12:50:37.557Z,12.65
2019-03-20T12:53:14.921Z,10.95
2019-03-20T12:55:43.716Z,12.70
2019-03-20T12:58:12.624Z,14.35
2019-03-20T13:00:41.376Z,12.13
2019-03-20T13:03:10.064Z,16.30
2019-03-20T13:05:38.862Z,17.57
2019-03-20T13:08:07.444Z,16.07
2019-03-20T13:10:36.039Z,20.27
2019-03-20T13:13:04.696Z,12.80
2019-03-20T13:15:36.407Z,11.97
2019-03-20T13:18:07.852Z,11.68
2019-03-20T13:20:39.891Z,12.35
2019-03-20T13:23:14.236Z,12.63
2019-03-20T13:25:42.969Z,13.32
2019-03-20T13:28:11.751Z,12.47
2019-03-20T13:30:52.122Z,13.18
2019-03-20T13:33:25.699Z,12.55
2019-03-20T13:35:54.166Z,14.33
2019-03-20T13:38:22.944Z,12.00
2019-03-20T13:40:54.040Z,11.68
2019-03-20T13:43:22.791Z,12.82
2019-03-20T13:45:51.433Z,16.82
2019-03-20T13:48:20.068Z,12.18
2019-03-20T13:50:51.236Z,10.78
2019-03-20T13:53:20.004Z,16.25
2019-03-20T13:55:48.876Z,19.27
2019-03-20T13:58:17.438Z,13.15
2019-03-20T14:00:46.384Z,12.53
2019-03-20T14:03:15.067Z,14.10
2019-03-20T14:05:43.659Z,15.68
2019-03-20T14:08:12.451Z,17.55
2019-03-20T14:10:50.370Z,15.68
2019-03-20T14:13:11.544Z,16.77
2019-03-20T14:15:40.350Z,15.38
2019-03-20T14:18:08.983Z,14.07
2019-03-20T14:20:37.738Z,17.35
2019-03-20T14:23:06.500Z,20.02
2019-03-20T14:25:35.514Z,16.52
2019-03-20T14:28:04.333Z,16.67
2019-03-20T14:30:34.201Z,12.95
2019-03-20T14:33:02.902Z,16.15
2019-03-20T14:35:31.543Z,15.80
2019-03-20T14:38:00.187Z,13.28
2019-03-20T14:40:36.026Z,13.93
2019-03-20T14:43:02.980Z,14.30
2019-03-20T14:45:31.670Z,23.97
2019-03-20T14:48:00.341Z,18.13
2019-03-20T14:50:29.870Z,13.90
2019-03-20T14:52:58.503Z,15.33
2019-03-20T14:55:27.176Z,16.90
2019-03-20T14:57:55.877Z,15.73
2019-03-20T15:00:26.262Z,19.70
2019-03-20T15:02:54.995Z,20.47
2019-03-20T15:05:26.654Z,19.43
2019-03-20T15:07:55.386Z,16.93
2019-03-20T15:10:28.554Z,16.90
2019-03-20T15:12:57.419Z,33.37
2019-03-20T15:15:31.716Z,22.63
2019-03-20T15:18:00.352Z,24.93
2019-03-20T15:20:28.988Z,18.20
2019-03-20T15:22:57.668Z,18.33
2019-03-20T15:25:26.300Z,16.13
2019-03-20T15:27:54.941Z,17.90
2019-03-20T15:30:24.777Z,20.87
2019-03-20T15:32:53.424Z,18.03
2019-03-20T15:35:22.060Z,21.07
2019-03-20T15:37:50.707Z,26.40
2019-03-20T15:40:21.052Z,23.83
2019-03-20T15:42:52.845Z,28.33
2019-03-20T15:45:21.482Z,20.20
2019-03-20T15:47:50.127Z,20.00
2019-03-20T15:50:26.347Z,21.83
2019-03-20T15:52:54.991Z,17.07
2019-03-20T15:55:31.363Z,17.50
2019-03-20T15:58:00.110Z,25.07
2019-03-20T16:00:28.791Z,20.50
2019-03-20T16:03:00.340Z,19.53
2019-03-20T16:05:28.991Z,25.20
2019-03-20T16:07:57.628Z,18.50
2019-03-20T16:10:26.274Z,20.53
2019-03-20T16:12:54.908Z,24.17
2019-03-20T16:15:24.464Z,19.43
2019-03-20T16:17:53.121Z,19.77
2019-03-20T16:20:24.808Z,19.00
2019-03-20T16:22:53.488Z,20.40
2019-03-20T16:25:25.130Z,20.03
2019-03-20T16:27:53.817Z,27.27
2019-03-20T16:30:26.279Z,17.87
2019-03-20T16:32:57.877Z,22.37
2019-03-20T16:35:26.611Z,20.80
2019-03-20T16:37:55.245Z,20.67
2019-03-20T16:40:35.221Z,24.37
2019-03-20T16:43:03.874Z,21.70
2019-03-20T16:45:35.418Z,21.80
2019-03-20T16:48:04.604Z,24.73
2019-03-20T16:50:33.160Z,25.33
2019-03-20T16:53:01.852Z,24.60
2019-03-20T16:55:30.480Z,21.90
2019-03-20T16:57:59.119Z,22.17
2019-03-20T17:00:32.270Z,22.90
2019-03-20T17:03:00.961Z,21.07
2019-03-20T17:05:32.992Z,19.73
2019-03-20T17:08:01.701Z,25.60
2019-03-20T17:10:33.222Z,23.67
2019-03-20T17:13:02.208Z,26.10
2019-03-20T17:15:33.380Z,27.83
2019-03-20T17:18:02.144Z,16.60
2019-03-20T17:20:30.782Z,27.47
2019-03-20T17:22:59.439Z,23.73
2019-03-20T17:25:28.485Z,21.27
2019-03-20T17:27:57.338Z,32.83
2019-03-20T17:30:28.890Z,29.63
2019-03-20T17:32:57.478Z,27.13
2019-03-20T17:35:29.153Z,29.00
2019-03-20T17:37:57.832Z,31.93
2019-03-20T17:40:27.579Z,24.27
2019-03-20T17:42:56.309Z,23.93
2019-03-20T17:45:28.891Z,24.53
2019-03-20T17:47:57.583Z,25.97
2019-03-20T17:50:31.091Z,22.90
2019-03-20T17:52:59.739Z,25.93
2019-03-20T17:55:28.622Z,25.80
2019-03-20T17:57:57.557Z,23.13
2019-03-20T18:00:40.334Z,24.93
2019-03-20T18:03:09.382Z,24.53
2019-03-20T18:05:38.425Z,22.20
2019-03-20T18:08:08.068Z,27.67
2019-03-20T18:10:36.770Z,26.13
2019-03-20T18:13:06.555Z,22.10
2019-03-20T18:15:35.404Z,26.07
2019-03-20T18:18:04.178Z,21.03
2019-03-20T18:20:32.813Z,25.50
2019-03-20T18:23:01.379Z,23.50
2019-03-20T18:25:30.017Z,25.73
2019-03-20T18:27:58.695Z,24.80
2019-03-20T18:30:32.128Z,24.30
2019-03-20T18:33:00.696Z,25.17
2019-03-20T18:35:29.367Z,29.93
2019-03-20T18:37:58.023Z,28.00
2019-03-20T18:40:27.457Z,26.17
2019-03-20T18:42:56.143Z,24.47
2019-03-20T18:45:25.946Z,24.20
2019-03-20T18:47:54.685Z,23.77
2019-03-20T18:50:27.047Z,24.40
2019-03-20T18:52:55.689Z,32.77
2019-03-20T18:55:27.057Z,22.83
2019-03-20T18:57:55.805Z,24.20
2019-03-20T19:00:32.171Z,24.13
2019-03-20T19:03:07.337Z,19.10
2019-03-20T19:05:41.773Z,24.70
2019-03-20T19:08:10.583Z,21.67
2019-03-20T19:10:39.285Z,26.23
2019-03-20T19:13:08.008Z,20.00
2019-03-20T19:15:36.699Z,22.83
2019-03-20T19:18:05.533Z,20.83
2019-03-20T19:20:34.206Z,20.33
2019-03-20T19:23:02.900Z,25.10
2019-03-20T19:25:31.553Z,19.47
2019-03-20T19:28:00.106Z,16.47
2019-03-20T19:30:28.800Z,19.77
2019-03-20T19:32:57.518Z,20.93
2019-03-20T19:35:26.137Z,23.67
2019-03-20T19:38:00.207Z,23.80
2019-03-20T19:40:28.671Z,18.90
2019-03-20T19:42:57.313Z,17.67
2019-03-20T19:45:25.877Z,20.30
2019-03-20T19:47:54.556Z,20.27
2019-03-20T19:50:24.239Z,22.30
2019-03-20T19:52:52.877Z,21.53
2019-03-20T19:55:21.534Z,19.10
2019-03-20T19:57:50.227Z,22.37
2019-03-20T20:00:22.934Z,22.57
2019-03-20T20:02:51.647Z,20.63
2019-03-20T20:05:23.908Z,22.03
2019-03-20T20:07:52.653Z,20.77
2019-03-20T20:10:21.399Z,18.00
2019-03-20T20:12:50.157Z,20.10
2019-03-20T20:15:26.178Z,18.53
2019-03-20T20:17:54.812Z,20.33
2019-03-20T20:20:30.691Z,21.03
2019-03-20T20:22:59.337Z,18.97
2019-03-20T20:25:28.026Z,19.43
2019-03-20T20:27:56.662Z,23.43
2019-03-20T20:30:25.319Z,17.30
2019-03-20T20:32:57.167Z,18.33
2019-03-20T20:35:25.731Z,15.70
2019-03-20T20:37:54.408Z,17.23
2019-03-20T20:40:27.600Z,14.03
2019-03-20T20:42:56.243Z,19.70
2019-03-20T20:45:24.920Z,13.93
2019-03-20T20:47:53.472Z,16.93
2019-03-20T20:50:22.160Z,19.87
2019-03-20T20:52:50.802Z,16.07
2019-03-20T20:55:23.116Z,15.77
2019-03-20T20:57:51.742Z,14.37
2019-03-20T21:00:21.850Z,18.20
2019-03-20T21:02:50.586Z,15.17
2019-03-20T21:05:19.214Z,13.37
2019-03-20T21:07:51.103Z,14.87
2019-03-20T21:10:23.736Z,21.27
2019-03-20T21:12:56.733Z,19.40
2019-03-20T21:15:33.759Z,22.13
2019-03-20T21:18:33.482Z,23.60
2019-03-20T21:21:02.121Z,20.67
2019-03-20T21:23:59.196Z,21.63
2019-03-20T21:27:05.532Z,18.97
2019-03-20T21:29:37.074Z,18.20
2019-03-20T21:32:11.080Z,26.80
2019-03-20T21:35:09.117Z,20.77
2019-03-20T21:37:51.831Z,21.33
2019-03-20T21:40:20.447Z,20.40
2019-03-20T21:43:15.841Z,16.00
2019-03-20T21:45:59.140Z,16.10
2019-03-20T21:48:27.632Z,16.53
2019-03-20T21:51:01.882Z,17.20
2019-03-20T21:53:33.470Z,20.13
2019-03-20T21:56:25.995Z,20.70
2019-03-20T21:59:19.847Z,15.97
2019-03-20T22:02:13.757Z,16.97
2019-03-20T22:04:42.401Z,22.33
2019-03-20T22:07:12.037Z,22.47
2019-03-20T22:09:55.641Z,17.77
2019-03-20T22:12:32.740Z,20.57
2019-03-20T22:15:06.818Z,20.67
2019-03-20T22:17:56.551Z,20.87
2019-03-20T22:20:39.949Z,19.83
2019-03-20T22:23:20.313Z,18.33
2019-03-20T22:25:51.870Z,24.70
2019-03-20T22:28:28.970Z,18.80
2019-03-20T22:30:57.532Z,24.80
2019-03-20T22:34:02.104Z,26.60
2019-03-20T22:36:33.523Z,20.27
2019-03-20T22:39:10.895Z,20.53
2019-03-20T22:41:57.091Z,27.57
2019-03-20T22:44:25.615Z,22.37
2019-03-20T22:47:13.696Z,22.87
2019-03-20T22:49:57.149Z,24.00
2019-03-20T22:52:48.336Z,28.30
2019-03-20T22:55:37.753Z,20.67
2019-03-20T22:58:42.307Z,25.40
2019-03-20T23:01:19.479Z,23.07
2019-03-20T23:04:02.573Z,24.20
2019-03-20T23:06:31.072Z,20.93
2019-03-20T23:08:59.758Z,23.67
2019-03-20T23:11:28.471Z,27.60
2019-03-20T23:13:57.041Z,34.73
2019-03-20T23:16:25.599Z,33.03
2019-03-20T23:18:54.240Z,30.17
2019-03-20T23:21:22.796Z,24.57
2019-03-20T23:23:51.382Z,27.23
2019-03-20T23:26:20.022Z,23.37
2019-03-20T23:28:48.598Z,21.10
2019-03-20T23:31:17.090Z,29.20
2019-03-20T23:33:45.701Z,27.20
2019-03-20T23:36:14.372Z,26.43
2019-03-20T23:38:42.876Z,19.20
2019-03-20T23:41:11.397Z,25.60
2019-03-20T23:43:39.897Z,20.10
2019-03-20T23:46:08.530Z,29.07
2019-03-20T23:48:46.028Z,29.70
2019-03-20T23:51:20.413Z,23.73
2019-03-20T23:53:50.966Z,25.40
2019-03-20T23:56:19.637Z,25.40
2019-03-20T23:58:48.255Z,29.53
